ADDS METAR Data INFO
IDs: Format: Raw Decoded Include TAF

Data at: 2009 UTC 19 Oct 2017

KD55 191955Z AUTO 20016KT 10SM CLR 20/01 A2971 RMK AO2
KD55 191935Z AUTO 19015KT 10SM CLR 18/01 A2972 RMK AO2
KD55 191915Z AUTO 19016KT 10SM CLR 18/01 A2973 RMK AO2
KD55 191855Z AUTO 19012G19KT 10SM CLR 17/01 A2974 RMK AO2
KD55 191835Z AUTO 18014KT 10SM CLR 17/01 A2974 RMK AO2
KD55 191815Z AUTO 18014KT 10SM CLR 16/01 A2974 RMK AO2
KD55 191755Z AUTO 18013KT 10SM CLR 15/00 A2975 RMK AO2
KD55 191735Z AUTO 18011G16KT 10SM CLR 15/00 A2975 RMK AO2
KD55 191715Z AUTO 19011KT 10SM CLR 14/M00 A2976 RMK AO2
KD55 191655Z AUTO 19009KT 10SM CLR 14/M00 A2977 RMK AO2
KD55 191635Z AUTO 19011KT 10SM CLR 13/M01 A2977 RMK AO2
KD55 191615Z AUTO 18012KT 10SM CLR 12/M01 A2977 RMK AO2
KD55 191555Z AUTO 19013KT 10SM CLR 12/M01 A2978 RMK AO2
KD55 191535Z AUTO 18012KT 10SM CLR 12/M02 A2977 RMK AO2
KD55 191515Z AUTO 17014KT 10SM CLR 11/M02 A2977 RMK AO2
KD55 191455Z AUTO 15008KT 10SM CLR 10/M02 A2979 RMK AO2
KD55 191435Z AUTO 15010KT 10SM CLR 08/M03 A2979 RMK AO2
KD55 191415Z AUTO 15009KT 10SM CLR 06/M03 A2979 RMK AO2
KD55 191355Z AUTO 15009KT 9SM CLR 05/M04 A2980 RMK AO2
KD55 191335Z AUTO 14009KT 10SM CLR 03/M04 A2980 RMK AO2
KD55 191315Z AUTO 14010KT 9SM CLR 01/M05 A2981 RMK AO2
KD55 191255Z AUTO 15009KT 10SM CLR M00/M05 A2982 RMK AO2
KD55 191235Z AUTO 14008KT 10SM CLR M01/M04 A2982 RMK AO2
KD55 191215Z AUTO 14008KT 10SM CLR M01/M04 A2982 RMK AO2
KD55 191155Z AUTO 13007KT 10SM CLR M01/M04 A2983 RMK AO2
KD55 191135Z AUTO 12006KT 10SM CLR M01/M04 A2983 RMK AO2
KD55 191115Z AUTO 16006KT 10SM CLR 00/M03 A2984 RMK AO2
KD55 191055Z AUTO 17007KT 10SM CLR 00/M03 A2985 RMK AO2
KD55 191035Z AUTO 16006KT 10SM CLR M01/M04 A2985 RMK AO2
KD55 191015Z AUTO 16004KT 10SM CLR M00/M04 A2986 RMK AO2
KD55 190955Z AUTO 18009KT 10SM CLR M01/M05 A2986 RMK AO2
KD55 190935Z AUTO 19007KT 10SM CLR M01/M05 A2987 RMK AO2
KD55 190915Z AUTO 18005KT 10SM CLR M01/M04 A2987 RMK AO2
KD55 190855Z AUTO 00000KT 10SM CLR M00/M05 A2987 RMK AO2
KD55 190835Z AUTO 21007KT 10SM CLR 00/M05 A2987 RMK AO2
KD55 190815Z AUTO 22010KT 10SM CLR 01/M05 A2988 RMK AO2
KD55 190755Z AUTO 22010KT 10SM CLR 01/M05 A2987 RMK AO2
KD55 190735Z AUTO 23008KT 10SM CLR 01/M05 A2987 RMK AO2
KD55 190715Z AUTO 23012KT 10SM CLR 01/M06 A2987 RMK AO2
KD55 190655Z AUTO 23009KT 10SM CLR 01/M06 A2987 RMK AO2
KD55 190635Z AUTO 24012KT 10SM CLR 02/M06 A2986 RMK AO2
KD55 190615Z AUTO 25009KT 10SM CLR 02/M06 A2985 RMK AO2
KD55 190555Z AUTO 25011KT 10SM CLR 03/M06 A2986 RMK AO2
KD55 190535Z AUTO 25012KT 10SM CLR 04/M06 A2986 RMK AO2
KD55 190515Z AUTO 25012KT 10SM CLR 05/M06 A2985 RMK AO2
KD55 190455Z AUTO 26013KT 10SM CLR 05/M06 A2985 RMK AO2
KD55 190435Z AUTO 25015KT 10SM CLR 05/M06 A2985 RMK AO2
KD55 190415Z AUTO 25014KT 10SM FEW038 04/M06 A2985 RMK AO2
KD55 190355Z AUTO 25013KT 10SM CLR 05/M06 A2985 RMK AO2
KD55 190335Z AUTO 25016KT 10SM CLR 05/M07 A2985 RMK AO2
KD55 190315Z AUTO 25015KT 9SM CLR 06/M07 A2985 RMK AO2
KD55 190255Z AUTO 25014KT 10SM CLR 05/M08 A2985 RMK AO2
KD55 190235Z AUTO 24015KT 10SM CLR 06/M09 A2985 RMK AO2
KD55 190215Z AUTO 25016KT 10SM CLR 07/M09 A2984 RMK AO2
KD55 190155Z AUTO 25018KT 10SM CLR 08/M09 A2984 RMK AO2
KD55 190135Z AUTO 25017KT 10SM CLR 08/M10 A2983 RMK AO2
KD55 190115Z AUTO 26020KT 10SM CLR 09/M10 A2983 RMK AO2
KD55 190055Z AUTO 26015G26KT 10SM CLR 09/M11 A2983 RMK AO2
KD55 190035Z AUTO 26018G26KT 10SM CLR 09/M11 A2982 RMK AO2
KD55 190015Z AUTO 26020G27KT 10SM CLR 10/M11 A2981 RMK AO2
KD55 182355Z AUTO 26021G29KT 10SM CLR 10/M10 A2980 RMK AO2
KD55 182335Z AUTO 26022G29KT 10SM CLR 11/M11 A2979 RMK AO2
KD55 182315Z AUTO 26024G30KT 10SM CLR 12/M11 A2979 RMK AO2
KD55 182255Z AUTO 26025G32KT 10SM CLR 12/M11 A2978 RMK AO2
KD55 182235Z AUTO 27028G35KT 10SM CLR 13/M11 A2977 RMK AO2
KD55 182215Z AUTO 27028G35KT 10SM CLR 13/M13 A2977 RMK AO2
KD55 182155Z AUTO 28030G37KT 10SM CLR 13/M13 A2977 RMK AO2
KD55 182135Z AUTO 27029G42KT 10SM CLR 14/M12 A2976 RMK AO2
KD55 182115Z AUTO 27033G42KT 10SM CLR 14/M12 A2975 RMK AO2
KD55 182055Z AUTO 27028G41KT 10SM CLR 14/M12 A2975 RMK AO2
KD55 182035Z AUTO 27029G46KT 10SM CLR 14/M12 A2974 RMK AO2
KD55 182015Z AUTO 27031G39KT 10SM CLR 14/M12 A2974 RMK AO2
KD55 181955Z AUTO 28034G45KT 10SM CLR 14/M12 A2973 RMK AO2
KD55 181935Z AUTO 27028G43KT 10SM CLR 14/M12 A2973 RMK AO2
KD55 181915Z AUTO 27032G44KT 10SM CLR 14/M12 A2972 RMK AO2
KD55 181855Z AUTO 27035G45KT 10SM CLR 14/M12 A2972 RMK AO2
KD55 181835Z AUTO 27033G42KT 10SM CLR 14/M11 A2972 RMK AO2
KD55 181815Z AUTO 27029G42KT 10SM CLR 14/M11 A2972 RMK AO2
KD55 181755Z AUTO 28026G47KT 10SM CLR 14/M10 A2972 RMK AO2
KD55 181735Z AUTO 27030G41KT 10SM CLR 13/M09 A2971 RMK AO2
KD55 181715Z AUTO 26030G41KT 10SM CLR 13/M08 A2970 RMK AO2
KD55 181655Z AUTO 27034G41KT 10SM CLR 12/M07 A2970 RMK AO2
KD55 181635Z AUTO 27029G39KT 10SM CLR 11/M06 A2971 RMK AO2
KD55 181615Z AUTO 27029G39KT 10SM CLR 11/M05 A2970 RMK AO2
KD55 181555Z AUTO 27028G38KT 10SM CLR 10/M04 A2970 RMK AO2
KD55 181535Z AUTO 26032G37KT 10SM CLR 10/M03 A2969 RMK AO2
KD55 181515Z AUTO 26024G34KT 10SM CLR 09/M01 A2969 RMK AO2
KD55 181455Z AUTO 26024G31KT 10SM CLR 08/M01 A2969 RMK AO2
KD55 181435Z AUTO 26022G29KT 10SM CLR 08/M00 A2968 RMK AO2
KD55 181415Z AUTO 26022KT 10SM CLR 08/00 A2968 RMK AO2
KD55 181355Z AUTO 26020G25KT 10SM CLR 09/00 A2967 RMK AO2
KD55 181335Z AUTO 27022KT 10SM CLR 09/00 A2967 RMK AO2
KD55 181315Z AUTO 28022G29KT 10SM CLR 10/01 A2966 RMK AO2
KD55 181255Z AUTO 18.28000018G31KT 10SM CLR 10/02 A2964 RMK AO2
KD55 181235Z AUTO 29019KT 10SM CLR 11/02 A2963 RMK AO2
KD55 181215Z AUTO 29020G33KT 10SM CLR 11/02 A2961 RMK AO2
KD55 181155Z AUTO 29023G34KT 10SM CLR 13/01 A2960 RMK AO2
KD55 181135Z AUTO 26016G25KT 10SM CLR 13/00 A2958 RMK AO2
KD55 181115Z AUTO 26018G24KT 10SM CLR 13/M00 A2956 RMK AO2
KD55 181055Z AUTO 24015KT 10SM CLR 12/M01 A2954 RMK AO2
KD55 181035Z AUTO 24012KT 10SM CLR 12/M01 A2953 RMK AO2
KD55 181015Z AUTO 24014KT 10SM CLR 13/M02 A2952 RMK AO2
KD55 180955Z AUTO 24013KT 10SM CLR 14/M02 A2952 RMK AO2
KD55 180935Z AUTO 25017KT 10SM CLR 14/M02 A2951 RMK AO2
KD55 180915Z AUTO 25021KT 10SM CLR 15/M02 A2950 RMK AO2
KD55 180855Z AUTO 22014KT 10SM CLR 12/M00 A2949 RMK AO2
KD55 180835Z AUTO 21016G23KT 10SM CLR 11/M00 A2948 RMK AO2
KD55 180815Z AUTO 20017KT 10SM CLR 11/00 A2947 RMK AO2